Paddock Lake, Wisconsin
Current Conditions -  °F | °C
As of 11:53 AM on Tuesday 21 Oct 2014 (Local Time) from KENW Reporting Station
Overcast Overcast  
Wind Chill: 44°   Ceiling: 3200
Heat Index: 49°   Visibility: 10mi
Dew Point: 40°   Wind: 12mph
Humidity: 71%   Direction: 360°N
Pressure: 30.2"   Gusts: NA
Location:  42.5866°N, 88.1341°W
Report Text: KENW 211653Z 36010KT 10SM OVC032 09/04 A3020 RMK AO2 SLP229 T00940044
Loading
Personal Weather Stations






























Interactive Weather Map
Tropical Storm Tracking
New forecast layout! Learn more

10-Day Weather Forecast

Advertisements
Track Severe Weather on mobile